Time;durP1;ratioP1;P1;durP2;ratioP2;P2;SDS_P1;SDS_P2;PMS_P1;PMS_P2;Temp;Humidity;BMP_temperature;BMP_pressure;BME280_temperature;BME280_humidity;BME280_pressure;Samples;Min_cycle;Max_cycle;Signal;HPM_P1;HPM_P2
2023/03/27 00:01:56;;;;;;;2.22;1.00;;;5.60;99.90;;;4.84;100.00;96141.66;5014222;28;20513;-36
2023/03/27 00:04:21;;;;;;;1.20;1.00;;;5.60;99.90;;;4.81;100.00;96126.09;5011264;28;20095;-36
2023/03/27 00:06:50;;;;;;;1.50;1.10;;;5.60;99.90;;;4.80;100.00;96143.53;5014468;28;20029;-37
2023/03/27 00:09:16;;;;;;;1.65;1.25;;;5.60;99.90;;;4.80;100.00;96137.47;5016998;28;20036;-37
2023/03/27 00:11:42;;;;;;;2.38;1.20;;;5.60;99.90;;;4.77;100.00;96141.88;5015284;28;20581;-36
2023/03/27 00:14:08;;;;;;;1.73;1.30;;;5.60;99.90;;;4.73;100.00;96135.03;5009135;28;20487;-36
2023/03/27 00:16:34;;;;;;;2.22;1.27;;;5.60;99.90;;;4.73;100.00;96161.16;5012118;28;20037;-36
2023/03/27 00:19:00;;;;;;;2.22;1.38;;;5.50;99.90;;;4.66;100.00;96141.38;5013597;28;20025;-36
2023/03/27 00:21:27;;;;;;;1.88;1.50;;;5.50;99.90;;;4.66;100.00;96162.28;5012755;28;20045;-35
2023/03/27 00:23:53;;;;;;;1.40;1.30;;;5.50;99.90;;;4.64;100.00;96156.25;5003454;28;20022;-36
2023/03/27 00:26:22;;;;;;;1.88;1.30;;;5.40;99.90;;;4.62;100.00;96167.66;5000663;28;20033;-36
2023/03/27 00:28:48;;;;;;;3.05;1.92;;;5.40;99.90;;;4.63;100.00;96172.84;5011556;28;20048;-36
2023/03/27 00:31:15;;;;;;;3.42;2.00;;;5.40;99.90;;;4.62;100.00;96173.72;5001583;28;20120;-37
2023/03/27 00:33:42;;;;;;;2.83;2.40;;;5.40;99.90;;;4.55;100.00;96164.38;5001589;28;20033;-37
2023/03/27 00:36:09;;;;;;;3.10;2.25;;;5.40;99.90;;;4.57;100.00;96178.25;5005596;28;20485;-37
2023/03/27 00:38:35;;;;;;;4.43;2.50;;;5.40;99.90;;;4.58;100.00;96186.03;5003140;28;20086;-37
2023/03/27 00:41:01;;;;;;;4.07;2.50;;;5.40;99.90;;;4.63;100.00;96192.84;5007439;28;20199;-37
2023/03/27 00:43:34;;;;;;;3.85;3.10;;;5.40;99.90;;;4.64;100.00;96205.03;4993837;28;20030;-37
2023/03/27 00:46:37;;;;;;;3.78;2.60;;;5.40;99.90;;;4.61;100.00;96207.72;4997436;28;20034;-37
2023/03/27 00:49:08;;;;;;;3.65;3.22;;;5.40;99.90;;;4.59;100.00;96210.38;5006532;28;20033;-35
2023/03/27 00:51:36;;;;;;;4.78;2.60;;;5.40;99.90;;;4.55;100.00;96219.22;5002429;28;20116;-36
2023/03/27 00:54:03;;;;;;;3.60;2.60;;;5.30;99.90;;;4.59;100.00;96220.81;5013716;28;20048;-36
2023/03/27 00:56:29;;;;;;;2.25;2.05;;;5.30;99.90;;;4.56;100.00;96229.63;5011734;28;20068;-37
2023/03/27 00:59:01;;;;;;;2.72;2.30;;;5.30;99.90;;;4.56;100.00;96236.59;4992079;28;20412;-36
2023/03/27 01:01:30;;;;;;;4.82;2.97;;;5.30;99.90;;;4.56;100.00;96242.69;5003881;28;20057;-37
2023/03/27 01:04:02;;;;;;;2.35;1.85;;;5.30;99.90;;;4.48;100.00;96231.59;5002506;28;20122;-37
2023/03/27 01:06:30;;;;;;;1.98;1.77;;;5.30;99.90;;;4.43;100.00;96245.72;4986937;28;20029;-37
2023/03/27 01:08:56;;;;;;;1.65;1.48;;;5.20;99.90;;;4.42;100.00;96249.25;5006753;28;20049;-36
2023/03/27 01:11:47;;;;;;;1.60;1.30;;;5.20;99.90;;;4.39;100.00;96253.63;5011436;28;20042;-36
2023/03/27 01:14:52;;;;;;;1.40;1.30;;;5.10;99.90;;;4.27;100.00;96256.63;4990101;28;20144;-36
2023/03/27 01:17:45;;;;;;;1.30;1.10;;;5.10;99.90;;;4.18;100.00;96262.09;4990786;28;20409;-36
2023/03/27 01:21:08;;;;;;;1.58;0.98;;;5.00;99.90;;;4.08;100.00;96260.69;5013884;28;20326;-37
2023/03/27 01:24:13;;;;;;;1.73;1.15;;;4.90;99.90;;;4.13;100.00;96270.09;5013264;28;20572;-37
2023/03/27 01:27:01;;;;;;;3.13;1.48;;;4.90;99.90;;;4.06;100.00;96278.16;5006710;28;20038;-37
2023/03/27 01:29:45;;;;;;;2.78;1.30;;;4.90;99.90;;;4.08;100.00;96284.19;5014666;28;20045;-35
2023/03/27 01:32:26;;;;;;;1.60;1.23;;;4.90;99.90;;;4.03;100.00;96280.84;4998629;28;20029;-35
2023/03/27 01:35:09;;;;;;;1.83;1.38;;;4.80;99.90;;;4.00;100.00;96290.47;5011114;28;20033;-36
2023/03/27 01:37:59;;;;;;;2.80;2.10;;;4.90;99.90;;;4.03;100.00;96304.31;4993282;28;20037;-36
2023/03/27 01:40:31;;;;;;;3.83;2.65;;;4.80;99.90;;;4.11;100.00;96299.72;5018369;28;20033;-36
2023/03/27 01:43:04;;;;;;;3.33;2.60;;;4.80;99.90;;;4.07;100.00;96306.78;4999852;28;20040;-36
2023/03/27 01:45:49;;;;;;;3.97;2.53;;;4.90;99.90;;;3.90;100.00;96273.38;4993491;28;20040;-36
2023/03/27 01:48:20;;;;;;;4.30;2.70;;;4.80;99.90;;;4.10;100.00;96304.09;5007772;28;20029;-36
2023/03/27 01:51:02;;;;;;;6.65;2.45;;;4.80;99.90;;;4.12;100.00;96330.16;5003908;28;20159;-37
2023/03/27 01:53:36;;;;;;;4.63;2.05;;;4.90;99.90;;;3.98;100.00;96317.47;5013297;28;20036;-38
2023/03/27 01:56:24;;;;;;;3.70;1.90;;;4.80;99.90;;;3.91;100.00;96339.41;4995750;28;20025;-37
2023/03/27 01:59:12;;;;;;;3.40;1.85;;;4.70;99.90;;;3.83;100.00;96339.63;5012053;28;20029;-37
2023/03/27 02:01:45;;;;;;;2.72;1.85;;;4.70;99.90;;;3.80;100.00;96361.44;4996663;28;20110;-37
2023/03/27 02:04:21;;;;;;;5.60;1.70;;;4.60;99.90;;;3.83;100.00;96366.56;4999346;28;20034;-37
2023/03/27 02:06:57;;;;;;;2.58;1.70;;;4.60;99.90;;;3.76;100.00;96369.38;5008315;28;20147;-37
2023/03/27 02:09:28;;;;;;;2.60;1.92;;;4.60;99.90;;;3.57;100.00;96362.06;4995338;28;20033;-37
2023/03/27 02:12:20;;;;;;;6.85;3.55;;;4.50;99.90;;;3.52;100.00;96382.16;5000478;28;20037;-37
2023/03/27 02:14:53;;;;;;;7.18;4.20;;;4.40;99.90;;;3.41;100.00;96385.03;5011441;23;20061;-36
2023/03/27 02:17:20;;;;;;;10.50;5.15;;;4.30;99.90;;;3.29;100.00;96398.38;5016843;28;20394;-36
2023/03/27 02:20:06;;;;;;;10.20;4.80;;;4.20;99.90;;;3.21;100.00;96403.78;5017866;28;20040;-36
2023/03/27 02:22:33;;;;;;;10.63;4.97;;;4.10;99.90;;;3.18;100.00;96409.03;5013436;28;20036;-36
2023/03/27 02:24:59;;;;;;;13.65;5.50;;;4.00;99.90;;;2.93;100.00;96387.91;5010882;28;20033;-36
2023/03/27 02:27:41;;;;;;;18.60;6.20;;;4.00;99.90;;;2.99;100.00;96429.44;5011726;28;20029;-36
2023/03/27 02:30:36;;;;;;;14.25;6.05;;;3.90;99.90;;;2.91;100.00;96440.91;4995629;28;20032;-36
2023/03/27 02:33:13;;;;;;;19.95;6.25;;;3.80;99.90;;;2.85;100.00;96442.78;5009767;28;20034;-36
2023/03/27 02:35:47;;;;;;;17.05;6.95;;;3.70;99.90;;;2.82;100.00;96450.66;4997651;28;20450;-36
2023/03/27 02:38:23;;;;;;;18.88;7.18;;;3.70;99.90;;;2.74;100.00;96443.91;4993005;28;20148;-36
2023/03/27 02:41:27;;;;;;;17.83;7.20;;;3.60;99.90;;;2.81;100.00;96463.72;4987802;28;20107;-36
2023/03/27 02:44:11;;;;;;;15.27;6.25;;;3.60;99.90;;;2.71;100.00;96457.84;5004556;28;20029;-36
2023/03/27 02:47:10;;;;;;;20.13;7.32;;;3.60;99.90;;;2.71;100.00;96470.00;4993186;28;20552;-36
2023/03/27 02:49:51;;;;;;;13.60;6.68;;;3.50;99.90;;;2.66;100.00;96481.38;5013110;28;20037;-36
2023/03/27 02:52:28;;;;;;;22.35;7.18;;;3.60;99.90;;;2.65;100.00;96478.78;4985773;28;20124;-36
2023/03/27 02:55:17;;;;;;;17.10;7.28;;;3.50;99.90;;;2.53;100.00;96489.44;4984874;28;20134;-36
2023/03/27 02:57:45;;;;;;;22.08;7.80;;;3.40;99.90;;;2.53;100.00;96497.25;4998044;28;20047;-37
2023/03/27 03:00:24;;;;;;;23.50;7.43;;;3.40;99.90;;;2.54;100.00;96505.03;4988364;28;20099;-36
2023/03/27 03:03:05;;;;;;;26.25;8.07;;;3.40;99.90;;;2.48;100.00;96506.00;4991325;28;20042;-37
2023/03/27 03:05:31;;;;;;;23.25;7.85;;;3.40;99.90;;;2.52;100.00;96532.84;4986412;28;20489;-36
2023/03/27 03:07:57;;;;;;;21.23;8.32;;;3.40;99.90;;;2.51;100.00;96525.91;4990147;28;20051;-36
2023/03/27 03:10:25;;;;;;;31.20;8.75;;;3.30;99.90;;;2.44;100.00;96533.00;4992161;28;20029;-36
2023/03/27 03:12:51;;;;;;;23.67;8.20;;;3.30;99.90;;;2.40;100.00;96544.31;5009221;28;20057;-36
2023/03/27 03:15:17;;;;;;;25.45;8.13;;;3.30;99.90;;;2.40;100.00;96549.53;5010320;28;20135;-36
2023/03/27 03:17:44;;;;;;;20.83;7.93;;;3.30;99.90;;;2.31;100.00;96556.66;5011288;28;20112;-37
2023/03/27 03:20:11;;;;;;;25.92;8.20;;;3.20;99.90;;;2.22;100.00;96563.72;5014510;28;20267;-36
2023/03/27 03:22:38;;;;;;;21.02;7.75;;;3.20;99.90;;;2.15;100.00;96569.91;5009792;28;20573;-36
2023/03/27 03:25:06;;;;;;;27.27;8.15;;;3.00;99.90;;;2.02;100.00;96565.81;5007184;28;20175;-36
2023/03/27 03:27:32;;;;;;;27.52;7.80;;;3.00;99.90;;;1.97;100.00;96571.06;5001483;28;20072;-36
2023/03/27 03:30:03;;;;;;;26.23;8.35;;;2.90;99.90;;;2.08;100.00;96579.59;5009117;28;20239;-36
2023/03/27 03:32:29;;;;;;;23.42;8.27;;;3.00;99.90;;;2.08;100.00;96589.09;5012858;28;20095;-36
2023/03/27 03:34:55;;;;;;;20.20;8.15;;;3.00;99.90;;;2.04;100.00;96603.06;5005745;28;21912;-36
2023/03/27 03:37:27;;;;;;;24.45;7.97;;;2.90;99.90;;;2.05;100.00;96612.59;5006798;28;20036;-36
2023/03/27 03:39:54;;;;;;;29.88;8.68;;;2.90;99.90;;;2.05;100.00;96604.78;5008183;28;20037;-36
2023/03/27 03:42:20;;;;;;;21.40;7.57;;;2.90;99.90;;;2.09;100.00;96611.66;5012094;28;20573;-36
2023/03/27 03:44:46;;;;;;;20.23;7.20;;;2.90;99.90;;;2.06;100.00;96625.56;5008570;28;20036;-36
2023/03/27 03:47:12;;;;;;;22.20;7.25;;;3.00;99.90;;;2.01;100.00;96616.09;5008566;28;20029;-36
2023/03/27 03:49:37;;;;;;;27.27;7.50;;;2.90;99.90;;;2.01;100.00;96629.97;5006383;28;20044;-36
2023/03/27 03:52:03;;;;;;;24.33;7.72;;;2.90;99.90;;;2.05;100.00;96651.59;5006767;28;20514;-36
2023/03/27 03:54:29;;;;;;;23.45;6.30;;;2.90;99.90;;;2.02;100.00;96647.28;5005856;28;20473;-36
2023/03/27 03:56:54;;;;;;;19.13;6.22;;;2.90;99.90;;;1.94;100.00;96658.69;5000777;28;20448;-36
2023/03/27 03:59:20;;;;;;;20.27;5.07;;;2.90;99.90;;;1.92;100.00;96666.53;4991973;28;20167;-36
2023/03/27 04:01:46;;;;;;;20.17;5.10;;;2.80;99.90;;;1.88;100.00;96675.22;5007307;28;20183;-36
2023/03/27 04:04:12;;;;;;;13.15;4.57;;;2.80;99.90;;;1.80;100.00;96672.75;5009335;28;20124;-36
2023/03/27 04:06:38;;;;;;;10.88;4.43;;;2.70;99.90;;;1.79;100.00;96688.38;4991380;28;20033;-36
2023/03/27 04:09:04;;;;;;;11.88;4.43;;;2.70;99.90;;;1.84;100.00;96699.56;5017314;28;20030;-36
2023/03/27 04:11:30;;;;;;;15.65;4.72;;;2.70;99.90;;;1.76;100.00;96694.47;5018269;28;20035;-36
2023/03/27 04:13:56;;;;;;;18.13;4.60;;;2.60;99.90;;;1.75;100.00;96712.69;5011087;28;20029;-36
2023/03/27 04:16:21;;;;;;;13.38;4.63;;;2.60;99.90;;;1.70;100.00;96720.53;5016912;28;20037;-36
2023/03/27 04:18:49;;;;;;;17.08;4.50;;;2.60;99.90;;;1.60;100.00;96727.59;4993296;28;20512;-36
2023/03/27 04:21:16;;;;;;;12.80;4.45;;;2.60;99.90;;;1.56;100.00;96744.09;5015524;28;20569;-36
2023/03/27 04:23:44;;;;;;;16.15;4.05;;;2.50;99.90;;;1.54;100.00;96738.06;5011938;28;20280;-36
2023/03/27 04:26:11;;;;;;;19.13;4.53;;;2.50;99.90;;;1.69;100.00;96745.69;5014109;28;20021;-36
2023/03/27 04:28:38;;;;;;;9.93;3.95;;;2.60;99.90;;;1.54;100.00;96756.25;5002713;28;20029;-36
2023/03/27 04:31:06;;;;;;;12.85;3.58;;;2.50;99.90;;;1.46;100.00;96763.28;5004219;28;20645;-36
2023/03/27 04:33:45;;;;;;;12.05;3.88;;;2.50;99.90;;;1.47;100.00;96770.19;4984778;28;20088;-36
2023/03/27 04:36:13;;;;;;;19.02;4.05;;;2.40;99.90;;;1.46;100.00;96776.28;5001785;28;20572;-36
2023/03/27 04:38:39;;;;;;;21.05;4.22;;;2.40;99.90;;;1.49;100.00;96786.63;5004427;28;20065;-36
2023/03/27 04:41:06;;;;;;;15.93;3.95;;;2.40;99.90;;;1.41;100.00;96799.72;4997852;28;20134;-37
2023/03/27 04:43:35;;;;;;;11.63;2.33;;;2.40;99.90;;;1.31;100.00;96795.47;5001853;28;20032;-37
2023/03/27 04:46:05;;;;;;;16.63;2.80;;;2.30;99.90;;;1.24;100.00;96797.28;4996671;28;20026;-37
2023/03/27 04:48:31;;;;;;;11.60;2.58;;;2.30;99.90;;;1.22;100.00;96811.16;4996415;28;20022;-37
2023/03/27 04:50:57;;;;;;;18.35;2.67;;;2.30;99.90;;;1.13;100.00;96820.78;4996986;28;20117;-37
2023/03/27 04:53:23;;;;;;;9.90;2.50;;;2.20;99.90;;;1.15;100.00;96820.75;5007289;28;20400;-37
2023/03/27 04:55:52;;;;;;;6.72;2.05;;;2.10;99.90;;;1.08;100.00;96827.72;5003031;28;20061;-37
2023/03/27 04:58:18;;;;;;;14.65;3.13;;;2.10;99.90;;;1.06;100.00;96831.19;5006833;28;20493;-37
2023/03/27 05:00:49;;;;;;;16.25;2.83;;;2.00;99.90;;;0.90;100.00;96833.94;5009259;28;20037;-37
2023/03/27 05:03:17;;;;;;;7.50;2.05;;;1.90;99.90;;;0.86;100.00;96837.44;5002797;28;20171;-37
2023/03/27 05:05:46;;;;;;;14.43;2.35;;;1.90;99.90;;;0.81;100.00;96844.41;5010507;28;20125;-37
2023/03/27 05:08:11;;;;;;;8.20;1.80;;;1.80;99.90;;;0.78;100.00;96852.19;5014734;28;20432;-37
2023/03/27 05:10:37;;;;;;;9.73;1.90;;;1.80;99.90;;;0.79;100.00;96860.84;5008639;28;21625;-37
2023/03/27 05:13:03;;;;;;;11.55;1.88;;;1.80;99.90;;;0.73;100.00;96856.56;5009499;28;20497;-36
2023/03/27 05:15:31;;;;;;;16.92;1.83;;;1.80;99.90;;;0.51;100.00;96830.75;5010530;28;21046;-37
2023/03/27 05:17:57;;;;;;;9.30;2.55;;;1.70;99.90;;;0.72;100.00;96880.81;5008470;28;21224;-37
2023/03/27 05:20:23;;;;;;;7.55;1.55;;;1.70;99.90;;;0.63;100.00;96891.22;5012062;28;20076;-37
2023/03/27 05:22:53;;;;;;;13.48;1.70;;;1.60;99.90;;;0.62;100.00;96899.88;5008829;28;20044;-37
2023/03/27 05:25:20;;;;;;;8.35;2.35;;;1.60;99.90;;;0.65;100.00;96900.72;5013777;28;20029;-37
2023/03/27 05:27:50;;;;;;;11.15;1.92;;;1.60;99.90;;;0.60;100.00;96925.00;5007431;28;20022;-37
2023/03/27 05:30:20;;;;;;;5.47;1.77;;;1.60;99.90;;;0.57;100.00;96937.13;5007025;28;20034;-37
2023/03/27 05:32:50;;;;;;;11.15;1.65;;;1.60;99.90;;;0.53;100.00;96918.97;5006603;28;20272;-36
2023/03/27 05:35:19;;;;;;;10.40;1.70;;;1.60;99.90;;;0.42;100.00;96905.19;5008790;28;20225;-37
2023/03/27 05:37:47;;;;;;;6.13;1.67;;;1.60;99.90;;;0.60;100.00;96940.56;4989795;28;20044;-37
2023/03/27 05:40:15;;;;;;;5.80;1.75;;;1.60;99.90;;;0.56;100.00;96947.50;5006437;28;20498;-37
2023/03/27 05:42:46;;;;;;;14.02;2.10;;;1.60;99.90;;;0.62;100.00;96959.56;4996382;28;20042;-37
2023/03/27 05:45:13;;;;;;;7.13;1.73;;;1.60;99.90;;;0.60;100.00;96954.38;4998398;28;20060;-37
2023/03/27 05:47:50;;;;;;;10.25;1.63;;;1.60;99.90;;;0.55;100.00;96953.53;4997642;28;20026;-37
2023/03/27 05:50:19;;;;;;;7.90;2.03;;;1.60;99.90;;;0.53;100.00;96953.53;5007700;28;20543;-37
2023/03/27 05:52:45;;;;;;;10.52;2.17;;;1.60;99.90;;;0.59;100.00;96967.38;5004145;28;20198;-37
2023/03/27 05:55:13;;;;;;;4.47;1.70;;;1.60;99.90;;;0.62;100.00;96975.16;5004752;28;21781;-37
2023/03/27 05:57:40;;;;;;;15.98;1.77;;;1.60;99.90;;;0.54;100.00;96970.84;5008508;28;20061;-37
2023/03/27 06:00:12;;;;;;;7.25;2.03;;;1.60;99.90;;;0.61;100.00;96979.50;5012091;28;20029;-37
2023/03/27 06:02:41;;;;;;;;;;;1.60;99.90;;;0.53;100.00;96968.25;5012897;28;20041;-37
2023/03/27 06:05:15;;;;;;;11.35;1.90;;;1.60;99.90;;;0.60;100.00;96982.94;5007665;28;19921;-37
2023/03/27 06:07:46;;;;;;;6.25;1.70;;;1.60;99.90;;;0.59;100.00;96978.59;5003364;28;20025;-37
2023/03/27 06:10:16;;;;;;;12.90;1.75;;;1.60;99.90;;;0.65;100.00;96988.13;5005251;28;20529;-37
2023/03/27 06:12:47;;;;;;;7.75;1.98;;;1.70;99.90;;;0.71;100.00;97001.06;5001657;28;20198;-37
2023/03/27 06:15:14;;;;;;;6.30;1.67;;;1.70;99.90;;;0.78;100.00;97009.69;5011839;28;20053;-36
2023/03/27 06:17:41;;;;;;;10.82;2.85;;;1.80;99.90;;;0.82;100.00;97017.44;5007659;28;20115;-36
2023/03/27 06:20:11;;;;;;;9.32;2.05;;;1.80;99.90;;;0.78;100.00;97026.13;4996061;28;20034;-37
2023/03/27 06:22:55;;;;;;;5.68;1.80;;;1.80;99.90;;;0.73;100.00;97025.28;5017201;28;20091;-37
2023/03/27 06:25:23;;;;;;;10.18;1.73;;;1.80;99.90;;;0.69;100.00;97046.91;4995263;28;20452;-37
2023/03/27 06:27:50;;;;;;;8.25;1.58;;;1.70;99.90;;;0.75;100.00;97042.59;5011207;28;20468;-37
2023/03/27 06:30:19;;;;;;;8.65;1.90;;;1.70;99.90;;;0.75;100.00;97049.47;5016576;28;20040;-37
2023/03/27 06:32:57;;;;;;;9.48;1.80;;;1.80;99.90;;;0.83;100.00;97062.47;4994239;28;20041;-37
2023/03/27 06:35:27;;;;;;;17.55;1.80;;;1.80;99.90;;;0.80;100.00;97068.50;5014389;28;20038;-37
2023/03/27 06:37:54;;;;;;;10.40;1.98;;;1.80;99.90;;;0.74;100.00;97065.94;5015643;28;20029;-37
2023/03/27 06:40:23;;;;;;;7.68;1.65;;;1.80;99.90;;;0.87;100.00;97070.22;5015385;28;20041;-37
2023/03/27 06:42:52;;;;;;;7.55;2.03;;;1.90;99.90;;;0.90;100.00;97084.94;5009587;28;20029;-37
2023/03/27 06:45:21;;;;;;;10.80;1.65;;;1.90;99.90;;;1.08;100.00;97091.78;5012115;28;20026;-37
2023/03/27 06:47:53;;;;;;;9.25;2.30;;;2.00;99.90;;;1.14;100.00;97102.13;5015110;28;20505;-37
2023/03/27 06:50:20;;;;;;;16.67;1.92;;;2.10;99.90;;;1.19;100.00;97109.91;5021049;28;20116;-37
2023/03/27 06:52:49;;;;;;;11.25;1.75;;;2.20;99.90;;;1.20;100.00;97112.47;5013280;28;20036;-37
2023/03/27 06:55:20;;;;;;;6.07;1.65;;;2.20;99.90;;;1.10;100.00;97116.00;5012821;28;20033;-37
2023/03/27 06:57:49;;;;;;;8.18;1.35;;;2.10;99.90;;;1.13;100.00;97113.38;5016283;28;20026;-37
2023/03/27 07:00:21;;;;;;;10.23;1.52;;;2.10;99.90;;;1.19;100.00;97136.75;5017406;28;20029;-36
2023/03/27 07:03:09;;;;;;;12.48;1.77;;;2.20;99.90;;;1.19;100.00;97135.88;5015365;28;20072;-37
2023/03/27 07:05:38;;;;;;;10.57;1.88;;;2.20;99.90;;;1.27;100.00;97142.75;5011232;28;20145;-37
2023/03/27 07:08:15;;;;;;;7.88;1.50;;;2.20;99.90;;;1.18;100.00;97149.72;5010858;28;20080;-37
2023/03/27 07:10:40;;;;;;;8.93;1.88;;;2.20;99.90;;;1.17;100.00;97154.06;5011166;28;20026;-37
2023/03/27 07:13:06;;;;;;;7.28;1.67;;;2.20;99.90;;;1.28;100.00;97160.09;5008565;28;20056;-36
2023/03/27 07:15:32;;;;;;;5.95;1.60;;;2.20;99.90;;;1.24;100.00;97150.59;5016619;28;20087;-37
2023/03/27 07:18:01;;;;;;;9.45;1.58;;;2.30;99.90;;;1.32;100.00;97158.34;5012058;28;20944;-37
2023/03/27 07:20:29;;;;;;;9.45;1.98;;;2.40;99.90;;;1.42;100.00;97164.34;5014126;28;20253;-36
2023/03/27 07:22:59;;;;;;;12.63;1.50;;;2.40;99.90;;;1.50;100.00;97180.78;5012866;28;20037;-36
2023/03/27 07:25:37;;;;;;;14.00;1.52;;;2.50;99.90;;;1.73;100.00;97182.41;5011354;28;20033;-36
2023/03/27 07:28:11;;;;;;;11.68;2.22;;;2.60;99.90;;;1.51;100.00;97172.97;5010663;28;20044;-37
2023/03/27 07:30:38;;;;;;;7.57;2.00;;;2.60;99.90;;;1.54;100.00;97179.88;5013678;28;20030;-37
2023/03/27 07:33:06;;;;;;;9.85;1.83;;;2.60;99.90;;;1.58;100.00;97197.22;5011636;28;20382;-36
2023/03/27 07:35:32;;;;;;;11.07;2.05;;;2.60;99.90;;;1.50;100.00;97197.22;5018707;28;20045;-36
2023/03/27 07:37:58;;;;;;;9.80;1.90;;;2.60;99.90;;;1.86;100.00;97197.06;5014692;28;20069;-37
2023/03/27 07:40:25;;;;;;;9.80;1.90;;;2.60;99.90;;;1.87;100.00;97197.06;4998165;28;20374;-37
2023/03/27 07:42:52;;;;;;;6.00;1.42;;;2.80;99.90;;;2.06;100.00;97204.72;5007092;28;20225;-37
2023/03/27 07:45:20;;;;;;;9.57;2.22;;;2.90;99.90;;;1.97;100.00;97207.41;5006127;28;20030;-37
2023/03/27 07:47:47;;;;;;;8.98;1.70;;;3.00;99.90;;;1.97;100.00;97217.81;5012496;28;20034;-37
2023/03/27 07:50:16;;;;;;;8.07;2.38;;;3.00;99.90;;;1.80;100.00;97213.56;5014914;28;20151;-37
2023/03/27 07:52:43;;;;;;;6.00;1.88;;;2.90;99.90;;;1.99;100.00;97234.25;5009574;28;20380;-37
2023/03/27 07:55:16;;;;;;;8.88;1.65;;;3.00;99.90;;;2.04;100.00;97238.56;5010117;28;20033;-37
2023/03/27 07:57:48;;;;;;;7.95;1.58;;;3.00;99.90;;;2.03;100.00;97241.19;4994344;28;20033;-38
2023/03/27 08:00:16;;;;;;;7.20;1.73;;;3.00;99.90;;;1.97;100.00;97247.25;5011125;28;20033;-38
2023/03/27 08:02:44;;;;;;;11.98;1.85;;;3.00;99.90;;;1.99;100.00;97244.66;5004661;28;20292;-37
2023/03/27 08:05:11;;;;;;;9.18;2.30;;;3.00;99.90;;;1.84;100.00;97259.47;4992185;28;20037;-38
2023/03/27 08:07:39;;;;;;;5.57;1.38;;;2.90;99.90;;;1.76;100.00;97273.38;5006041;28;20128;-38
2023/03/27 08:10:06;;;;;;;13.02;1.73;;;2.80;99.90;;;1.60;100.00;97281.25;5008164;28;20148;-38
2023/03/27 08:12:33;;;;;;;15.43;2.47;;;2.70;99.90;;;1.51;100.00;97282.13;5010382;28;20033;-38
2023/03/27 08:15:01;;;;;;;12.13;2.05;;;2.50;99.90;;;1.58;100.00;97280.41;5025534;22;20049;-53
2023/03/27 08:17:28;;;;;;;6.57;1.40;;;2.50;99.90;;;1.56;100.00;97286.44;5011064;28;20033;-52
2023/03/27 08:19:54;;;;;;;7.03;1.35;;;2.50;99.90;;;1.75;100.00;97288.13;5008614;28;20842;-47
2023/03/27 08:22:21;;;;;;;7.85;1.40;;;2.60;99.90;;;1.95;100.00;97295.84;5015465;28;20034;-48
2023/03/27 08:24:48;;;;;;;11.23;1.80;;;2.80;99.90;;;2.12;100.00;97298.38;5008759;28;20726;-48
2023/03/27 08:27:14;;;;;;;2.97;1.05;;;3.00;99.90;;;2.32;100.00;97305.22;5007802;28;20467;-51
2023/03/27 08:29:42;;;;;;;6.45;1.50;;;3.10;99.90;;;2.37;100.00;97293.91;5014068;28;20040;-49
2023/03/27 08:32:09;;;;;;;6.20;1.67;;;3.30;99.90;;;2.35;100.00;97316.47;5009745;28;20071;-47
2023/03/27 08:34:36;;;;;;;4.70;1.17;;;3.40;99.90;;;2.33;100.00;97322.53;5008549;28;20044;-48
2023/03/27 08:37:02;;;;;;;7.50;1.40;;;3.30;99.90;;;2.54;100.00;97316.34;5008864;28;20499;-50
2023/03/27 08:39:29;;;;;;;6.78;1.42;;;3.40;99.90;;;2.39;99.03;97319.91;5012599;28;20634;-52
2023/03/27 08:41:58;;;;;;;4.60;1.15;;;3.40;99.90;;;2.54;99.02;97321.56;5011148;28;20179;-50
2023/03/27 08:44:27;;;;;;;6.38;1.25;;;3.40;99.90;;;2.70;100.00;97323.16;5014366;28;20037;-51
2023/03/27 08:46:58;;;;;;;7.60;1.50;;;3.60;99.90;;;2.94;100.00;97326.47;4988480;28;20030;-49
2023/03/27 08:49:30;;;;;;;8.93;2.63;;;3.80;99.90;;;3.18;99.24;97330.63;5015967;28;20079;-53
2023/03/27 08:52:02;;;;;;;6.30;1.40;;;4.10;99.90;;;3.23;100.00;97339.25;4993358;28;20041;-50
2023/03/27 08:54:32;;;;;;;7.07;1.30;;;4.20;99.90;;;3.15;87.08;97341.06;4991649;28;20037;-52
2023/03/27 08:56:58;;;;;;;9.15;1.30;;;4.20;99.90;;;3.09;89.96;97348.91;5003553;28;20664;-53
2023/03/27 08:59:27;;;;;;;10.35;1.67;;;4.10;99.90;;;3.19;93.89;97347.97;4999617;28;20477;-54
2023/03/27 09:02:06;;;;;;;8.50;1.40;;;4.10;99.90;;;3.12;86.18;97360.19;5009122;28;20647;-55
2023/03/27 09:04:58;;;;;;;5.85;1.23;;;4.10;99.90;;;3.16;87.29;97364.50;5009951;28;20029;-53
2023/03/27 09:07:41;;;;;;;8.40;1.48;;;4.20;99.90;;;3.34;89.45;97363.50;5009667;28;20030;-54
2023/03/27 09:10:43;;;;;;;8.15;1.30;;;4.20;99.90;;;3.51;85.36;97376.38;4997529;28;20029;-53
2023/03/27 09:13:37;;;;;;;5.83;1.27;;;4.40;99.90;;;3.58;82.85;97362.38;5012277;28;20033;-52
2023/03/27 09:16:16;;;;;;;4.57;1.30;;;4.50;99.90;;;3.47;77.28;97382.50;4983974;28;20301;-53
2023/03/27 09:19:03;;;;;;;8.05;1.83;;;4.50;99.90;;;3.65;82.11;97376.25;5008129;28;20512;-53
2023/03/27 09:21:40;;;;;;;8.73;1.45;;;4.60;99.90;;;3.73;80.37;97376.16;5011108;28;20048;-53
2023/03/27 09:24:18;;;;;;;4.22;1.05;;;4.80;99.90;;;4.02;77.53;97383.69;4990628;28;20040;-54
2023/03/27 09:26:44;;;;;;;3.95;1.25;;;4.90;99.90;;;3.62;73.96;97384.09;4993440;28;20034;-53
2023/03/27 09:29:17;;;;;;;8.18;1.40;;;4.70;99.90;;;3.40;74.49;97393.84;5014857;28;20079;-54
2023/03/27 09:31:47;;;;;;;4.20;1.17;;;4.50;99.90;;;3.54;70.73;97397.22;4993468;28;20041;-54
2023/03/27 09:34:19;;;;;;;4.63;1.17;;;4.40;99.90;;;3.54;73.05;97393.75;5009061;28;20054;-53
2023/03/27 09:36:45;;;;;;;;;;;4.40;99.90;;;3.61;76.26;97393.66;4985339;28;20168;-53
2023/03/27 09:39:19;;;;;;;5.43;1.25;;;4.50;99.90;;;3.56;75.85;97395.44;5011214;28;19925;-53
2023/03/27 09:41:56;;;;;;;3.50;1.10;;;4.50;99.90;;;3.67;79.34;97405.78;4975255;28;20419;-53
2023/03/27 09:44:27;;;;;;;6.57;1.42;;;4.50;99.90;;;3.75;71.71;97396.16;4997590;28;20029;-54
2023/03/27 09:46:59;;;;;;;5.10;1.20;;;4.60;99.90;;;3.90;70.90;97416.00;5009650;28;20033;-54
2023/03/27 09:49:26;;;;;;;3.20;1.08;;;4.80;99.90;;;4.26;71.48;97416.47;4995780;28;20134;-54
2023/03/27 09:52:01;;;;;;;5.70;1.27;;;5.00;99.90;;;4.13;70.25;97423.59;5011934;28;20082;-54
2023/03/27 09:54:31;;;;;;;3.83;1.20;;;5.10;99.90;;;4.37;68.54;97427.66;5001030;28;20037;-53
2023/03/27 09:57:09;;;;;;;5.07;1.50;;;5.20;99.90;;;4.63;68.66;97429.09;5012830;28;20037;-51
2023/03/27 09:59:39;;;;;;;7.95;1.95;;;5.40;99.90;;;4.73;64.09;97427.22;5015353;28;20067;-51
2023/03/27 10:02:26;;;;;;;6.50;1.15;;;5.60;99.90;;;4.68;61.59;97440.31;5014316;28;20084;-52
2023/03/27 10:05:10;;;;;;;6.82;1.10;;;5.70;99.90;;;4.89;66.46;97422.66;5009273;28;20037;-53
2023/03/27 10:07:41;;;;;;;3.38;1.02;;;5.80;99.90;;;4.94;66.20;97428.69;5011241;28;20552;-52
2023/03/27 10:10:16;;;;;;;8.25;1.42;;;6.00;99.90;;;4.92;61.36;97431.31;5015625;28;20038;-53
2023/03/27 10:12:42;;;;;;;5.00;1.20;;;6.10;99.90;;;5.01;66.95;97419.88;5014904;28;20517;-54
2023/03/27 10:15:37;;;;;;;9.05;1.23;;;6.10;99.90;;;5.08;62.84;97442.41;5009160;28;20133;-54
2023/03/27 10:18:21;;;;;;;4.53;1.27;;;6.10;99.90;;;5.21;63.34;97439.63;4995926;28;20033;-54
2023/03/27 10:20:51;;;;;;;4.00;1.23;;;6.20;99.90;;;5.09;61.03;97451.97;5014946;28;20523;-52
2023/03/27 10:23:39;;;;;;;5.07;1.30;;;6.00;99.90;;;4.62;57.80;97444.78;5010563;28;20037;-53
2023/03/27 10:26:09;;;;;;;6.22;1.20;;;5.70;99.90;;;4.80;59.98;97448.91;5011609;28;20029;-53
2023/03/27 10:28:37;;;;;;;3.20;0.95;;;5.60;99.90;;;4.79;63.50;97453.25;5012253;28;20739;-54
2023/03/27 10:31:22;;;;;;;5.10;1.55;;;5.70;99.90;;;4.76;62.89;97456.78;5016200;28;20117;-53
2023/03/27 10:33:48;;;;;;;6.10;1.15;;;5.80;99.90;;;5.01;61.02;97458.19;5008181;28;20099;-54
2023/03/27 10:36:14;;;;;;;6.85;1.45;;;6.00;99.90;;;5.46;58.53;97448.81;5012103;28;20121;-52
2023/03/27 10:38:42;;;;;;;6.38;1.50;;;6.40;99.90;;;5.63;57.59;97458.13;5011907;28;20034;-49
2023/03/27 10:41:17;;;;;;;8.68;1.33;;;6.60;99.90;;;5.85;56.90;97451.66;5010713;28;20032;-52
2023/03/27 10:43:46;;;;;;;4.85;1.05;;;6.80;99.90;;;5.48;54.16;97467.94;4995368;28;20052;-51
2023/03/27 10:46:20;;;;;;;7.30;1.23;;;6.60;99.90;;;5.33;53.42;97470.81;4992790;28;20040;-50